Time;durP1;ratioP1;P1;durP2;ratioP2;P2;SDS_P1;SDS_P2;PMS_P1;PMS_P2;Temp;Humidity;BMP_temperature;BMP_pressure;BME280_temperature;BME280_humidity;BME280_pressure;Samples;Min_cycle;Max_cycle;Signal;HPM_P1;HPM_P2
2022/05/01 00:01:02;;;;;;;13.52;7.20;;;3.60;99.90;;;;;;4994767;28;20026;-70
2022/05/01 00:03:31;;;;;;;27.25;6.68;;;3.60;99.90;;;;;;4995020;28;20022;-70
2022/05/01 00:06:04;;;;;;;21.02;7.15;;;3.50;99.90;;;;;;4994837;28;20038;-70
2022/05/01 00:08:30;;;;;;;18.27;7.13;;;3.60;99.90;;;;;;4994685;28;20102;-70
2022/05/01 00:10:57;;;;;;;18.63;6.55;;;3.70;99.90;;;;;;4994815;28;20027;-70
2022/05/01 00:13:24;;;;;;;14.45;5.78;;;3.70;99.90;;;;;;4994519;28;20471;-70
2022/05/01 00:15:50;;;;;;;25.45;6.53;;;3.70;99.90;;;;;;4994293;28;20475;-70
2022/05/01 00:18:16;;;;;;;15.07;5.95;;;3.50;99.90;;;;;;4992987;28;20030;-72
2022/05/01 00:20:41;;;;;;;14.98;5.38;;;3.40;99.90;;;;;;4994522;28;20415;-70
2022/05/01 00:23:08;;;;;;;18.77;7.85;;;3.30;99.90;;;;;;4993189;28;20026;-70
2022/05/01 00:25:34;;;;;;;13.02;5.32;;;3.20;99.90;;;;;;4994280;28;20022;-70
2022/05/01 00:28:00;;;;;;;14.57;5.60;;;3.20;99.90;;;;;;4994607;28;20034;-70
2022/05/01 00:30:28;;;;;;;10.63;5.70;;;3.10;99.90;;;;;;4994311;28;20029;-70
2022/05/01 00:38:24;;;;;;;11.27;4.65;;;3.00;99.90;;;;;;4994511;28;20438;-70
2022/05/01 00:40:49;;;;;;;8.75;4.80;;;3.00;99.90;;;;;;4994542;28;20026;-70
2022/05/01 00:43:15;;;;;;;12.60;4.68;;;3.00;99.90;;;;;;4993812;28;20030;-70
2022/05/01 00:45:41;;;;;;;6.68;3.95;;;2.90;99.90;;;;;;4994179;28;20543;-71
2022/05/01 00:48:07;;;;;;;10.57;5.00;;;2.90;99.90;;;;;;4994267;28;20387;-70
2022/05/01 00:50:33;;;;;;;10.65;4.70;;;2.90;99.90;;;;;;4993961;28;20019;-71
2022/05/01 00:53:00;;;;;;;12.25;5.88;;;2.80;99.90;;;;;;4994181;28;20015;-70
2022/05/01 00:55:26;;;;;;;7.80;4.95;;;2.70;99.90;;;;;;4994144;28;20360;-70
2022/05/01 00:57:52;;;;;;;12.27;4.53;;;2.60;99.90;;;;;;4994429;28;20037;-70
2022/05/01 01:00:18;;;;;;;10.40;4.22;;;2.50;99.90;;;;;;4994081;28;20080;-70
2022/05/01 01:02:45;;;;;;;6.47;4.15;;;2.40;99.90;;;;;;4994369;28;20047;-71
2022/05/01 01:05:12;;;;;;;10.13;4.35;;;2.30;99.90;;;;;;4993939;28;20027;-70
2022/05/01 01:07:38;;;;;;;6.40;4.68;;;2.20;99.90;;;;;;4993945;28;20030;-70
2022/05/01 01:10:04;;;;;;;11.27;4.30;;;2.20;99.90;;;;;;4994714;28;20062;-70
2022/05/01 01:15:14;;;;;;;;;;;2.10;99.90;;;;;;4994710;28;20041;-70
2022/05/01 01:17:41;;;;;;;6.00;3.58;;;2.10;99.90;;;;;;4993993;28;20270;-70
2022/05/01 01:20:18;;;;;;;4.57;3.47;;;2.10;99.90;;;;;;4993923;28;20026;-70
2022/05/01 01:22:48;;;;;;;5.78;4.18;;;2.10;99.90;;;;;;4993613;28;20026;-70
2022/05/01 01:25:17;;;;;;;10.05;4.15;;;2.10;99.90;;;;;;4994079;28;20030;-70
2022/05/01 01:27:43;;;;;;;9.35;3.47;;;2.10;99.90;;;;;;4995537;28;20022;-70
2022/05/01 01:32:54;;;;;;;4.68;3.75;;;2.00;99.90;;;;;;4997840;28;20051;-70
2022/05/01 01:35:23;;;;;;;11.52;4.10;;;1.90;99.90;;;;;;4997309;28;20026;-70
2022/05/01 01:37:50;;;;;;;9.02;3.72;;;1.90;99.90;;;;;;4997010;28;20110;-70
2022/05/01 01:40:21;;;;;;;6.07;3.63;;;1.90;99.90;;;;;;4997395;28;20391;-70
2022/05/01 01:42:49;;;;;;;8.52;3.90;;;1.80;99.90;;;;;;4997801;28;20430;-70
2022/05/01 01:45:15;;;;;;;8.10;5.22;;;1.70;99.90;;;;;;4997187;28;20080;-70
2022/05/01 01:47:40;;;;;;;5.07;3.80;;;1.60;99.90;;;;;;4997211;28;20026;-70
2022/05/01 01:50:06;;;;;;;7.35;3.38;;;1.40;99.90;;;;;;4997448;28;20545;-71
2022/05/01 01:52:33;;;;;;;8.93;3.40;;;1.40;99.90;;;;;;4996770;28;20018;-70
2022/05/01 01:55:00;;;;;;;5.45;3.05;;;1.30;99.90;;;;;;4997322;28;20026;-70
2022/05/01 01:57:25;;;;;;;4.32;2.80;;;1.30;99.90;;;;;;4996994;28;20031;-70
2022/05/01 01:59:51;;;;;;;8.02;3.00;;;1.20;99.90;;;;;;4997034;28;20031;-70
2022/05/01 02:02:16;;;;;;;4.95;2.58;;;1.20;99.90;;;;;;4997239;28;20029;-70
2022/05/01 02:04:42;;;;;;;6.03;4.00;;;1.10;99.90;;;;;;4996922;28;20027;-70
2022/05/01 02:07:07;;;;;;;4.55;3.42;;;1.10;99.90;;;;;;5011550;28;20113;-70
2022/05/01 02:09:37;;;;;;;5.10;3.67;;;1.10;99.90;;;;;;4997098;28;20167;-70
2022/05/01 02:12:08;;;;;;;5.90;4.20;;;1.20;99.90;;;;;;4997052;28;20019;-70
2022/05/01 02:14:34;;;;;;;9.90;4.25;;;1.10;99.90;;;;;;4997194;28;20105;-70
2022/05/01 02:17:00;;;;;;;8.35;3.72;;;1.10;99.90;;;;;;4996549;28;20046;-70
2022/05/01 02:19:28;;;;;;;5.78;3.67;;;1.10;99.90;;;;;;4996420;28;20022;-71
2022/05/01 02:21:54;;;;;;;7.80;4.13;;;1.10;99.90;;;;;;4996684;28;20545;-71
2022/05/01 02:24:20;;;;;;;7.25;4.20;;;1.10;99.90;;;;;;4997068;28;20030;-70
2022/05/01 02:26:47;;;;;;;5.50;4.22;;;1.10;99.90;;;;;;4996548;28;20030;-70
2022/05/01 02:29:13;;;;;;;5.45;3.78;;;1.10;99.90;;;;;;4996540;28;20019;-70
2022/05/01 02:31:41;;;;;;;5.05;3.75;;;1.10;99.90;;;;;;4996406;28;20442;-70
2022/05/01 02:34:08;;;;;;;4.97;3.67;;;1.10;99.90;;;;;;4996065;28;20033;-70
2022/05/01 02:36:34;;;;;;;7.80;4.00;;;1.10;99.90;;;;;;4996551;28;20458;-70
2022/05/01 02:39:00;;;;;;;7.38;4.57;;;1.00;99.90;;;;;;4995913;28;20030;-70
2022/05/01 02:41:26;;;;;;;7.72;5.13;;;1.00;99.90;;;;;;4996233;28;20034;-71
2022/05/01 02:43:52;;;;;;;9.35;6.03;;;0.90;99.90;;;;;;4995987;28;20022;-71
2022/05/01 02:46:17;;;;;;;7.57;4.97;;;0.90;99.90;;;;;;4996401;28;20430;-70
2022/05/01 02:48:43;;;;;;;7.50;4.78;;;1.00;99.90;;;;;;4995987;28;20018;-70
2022/05/01 02:51:10;;;;;;;6.55;4.32;;;0.90;99.90;;;;;;4995859;28;20360;-70
2022/05/01 02:53:36;;;;;;;5.38;3.80;;;0.90;99.90;;;;;;4995666;28;20046;-71
2022/05/01 02:56:02;;;;;;;8.10;3.78;;;0.90;99.90;;;;;;4995827;28;20026;-71
2022/05/01 02:58:29;;;;;;;5.60;3.95;;;0.90;99.90;;;;;;4996455;28;20161;-70
2022/05/01 03:00:56;;;;;;;6.53;4.03;;;0.90;99.90;;;;;;4996169;28;20034;-70
2022/05/01 03:03:23;;;;;;;7.00;3.70;;;0.90;99.90;;;;;;4996119;28;20488;-70
2022/05/01 03:05:51;;;;;;;3.83;2.80;;;0.90;99.90;;;;;;4995981;28;20022;-71
2022/05/01 03:08:17;;;;;;;20.13;2.72;;;0.80;99.90;;;;;;4995723;28;20022;-70
2022/05/01 03:10:43;;;;;;;4.45;3.42;;;1.00;99.90;;;;;;5010812;28;20049;-70
2022/05/01 03:13:09;;;;;;;2.38;2.17;;;1.00;99.90;;;;;;4995328;28;20102;-70
2022/05/01 03:15:34;;;;;;;2.20;2.00;;;1.10;99.90;;;;;;4995748;28;20085;-70
2022/05/01 03:23:28;;;;;;;6.35;2.58;;;1.10;99.90;;;;;;4995477;28;20033;-70
2022/05/01 03:25:54;;;;;;;3.17;2.28;;;1.10;99.90;;;;;;4995345;28;20034;-70
2022/05/01 03:28:19;;;;;;;4.35;2.47;;;1.00;99.90;;;;;;4995329;28;20019;-70
2022/05/01 03:30:45;;;;;;;2.95;2.63;;;1.00;99.90;;;;;;4995356;28;20105;-71
2022/05/01 03:33:11;;;;;;;2.72;2.20;;;0.90;99.90;;;;;;4994936;28;20069;-71
2022/05/01 03:35:38;;;;;;;3.47;2.80;;;0.80;99.90;;;;;;4994963;28;20038;-70
2022/05/01 03:38:06;;;;;;;4.55;2.55;;;0.80;99.90;;;;;;4995215;28;20030;-71
2022/05/01 03:40:35;;;;;;;13.25;4.55;;;0.80;99.90;;;;;;4995369;28;20026;-70
2022/05/01 03:43:02;;;;;;;28.20;4.03;;;0.70;99.90;;;;;;5010106;28;20030;-70
2022/05/01 03:45:28;;;;;;;3.95;3.25;;;0.80;99.90;;;;;;4995196;28;20031;-70
2022/05/01 03:47:53;;;;;;;3.50;2.75;;;0.80;99.90;;;;;;4994971;28;20029;-70
2022/05/01 03:50:19;;;;;;;3.25;2.67;;;0.80;99.90;;;;;;4994527;28;20019;-70
2022/05/01 03:52:45;;;;;;;6.00;3.08;;;0.80;99.90;;;;;;4994924;28;20031;-70
2022/05/01 03:55:12;;;;;;;4.00;3.10;;;0.90;99.90;;;;;;4994578;28;20023;-70
2022/05/01 03:57:38;;;;;;;4.50;3.00;;;0.80;99.90;;;;;;4994773;28;20026;-70
2022/05/01 04:00:05;;;;;;;4.35;3.58;;;0.80;99.90;;;;;;4995605;28;20407;-70
2022/05/01 04:02:38;;;;;;;3.90;3.13;;;0.80;99.90;;;;;;4994811;28;20030;-70
2022/05/01 04:05:04;;;;;;;3.78;3.30;;;0.70;99.90;;;;;;4994990;28;20030;-70
2022/05/01 04:07:30;;;;;;;3.65;2.70;;;0.70;99.90;;;;;;4994183;28;20116;-70
2022/05/01 04:09:56;;;;;;;3.50;2.65;;;0.70;99.90;;;;;;4995218;28;20094;-70
2022/05/01 04:12:22;;;;;;;4.13;3.05;;;0.80;99.90;;;;;;5009709;28;20022;-70
2022/05/01 04:14:47;;;;;;;3.15;2.40;;;0.70;99.90;;;;;;4994604;28;20022;-70
2022/05/01 04:17:13;;;;;;;4.53;2.53;;;0.80;99.90;;;;;;4993261;28;20041;-70
2022/05/01 04:19:39;;;;;;;3.15;2.50;;;0.80;99.90;;;;;;4977712;28;20121;-70
2022/05/01 04:22:04;;;;;;;6.57;3.10;;;0.90;99.90;;;;;;4974642;28;20507;-70
2022/05/01 04:24:30;;;;;;;4.18;2.38;;;0.90;99.90;;;;;;4975030;28;20066;-70
2022/05/01 04:26:55;;;;;;;2.50;2.05;;;1.00;99.90;;;;;;4983181;28;20439;-70
2022/05/01 04:29:36;;;;;;;3.83;2.58;;;1.10;99.90;;;;;;4994389;28;20428;-70
2022/05/01 04:32:04;;;;;;;3.53;2.88;;;1.10;99.90;;;;;;4994673;28;20097;-70
2022/05/01 04:34:29;;;;;;;3.22;2.78;;;1.10;99.90;;;;;;4992835;28;20022;-70
2022/05/01 04:36:55;;;;;;;3.22;2.28;;;1.20;99.90;;;;;;4993196;28;20404;-70
2022/05/01 04:39:20;;;;;;;4.63;2.78;;;1.20;99.90;;;;;;4994514;28;20029;-70
2022/05/01 04:41:46;;;;;;;4.47;3.33;;;1.30;99.90;;;;;;4994054;28;20114;-70
2022/05/01 04:44:12;;;;;;;3.70;2.78;;;1.30;99.90;;;;;;4994368;28;20394;-70
2022/05/01 04:46:37;;;;;;;3.40;2.88;;;1.40;99.90;;;;;;4994323;28;20042;-70
2022/05/01 04:49:03;;;;;;;7.65;3.72;;;1.40;99.90;;;;;;4994454;28;20105;-70
2022/05/01 04:51:28;;;;;;;5.95;3.75;;;1.50;99.90;;;;;;4994192;28;20113;-70
2022/05/01 04:53:54;;;;;;;4.47;3.15;;;1.60;99.90;;;;;;4994624;28;20145;-71
2022/05/01 04:59:07;;;;;;;4.38;3.35;;;1.70;99.90;;;;;;4994197;28;20041;-70
2022/05/01 05:01:35;;;;;;;3.05;2.75;;;1.70;99.90;;;;;;4995357;28;20026;-70
2022/05/01 05:04:01;;;;;;;4.78;2.60;;;1.80;99.90;;;;;;4997988;28;20391;-70
2022/05/01 05:06:27;;;;;;;6.18;2.63;;;1.90;99.90;;;;;;4997961;28;20030;-70
2022/05/01 05:11:37;;;;;;;5.90;2.83;;;2.10;99.90;;;;;;4998257;28;20034;-70
2022/05/01 05:14:04;;;;;;;5.13;3.45;;;2.20;99.90;;;;;;4997559;28;20031;-70
2022/05/01 05:16:30;;;;;;;4.15;2.97;;;2.30;99.90;;;;;;4998004;28;20463;-70
2022/05/01 05:18:55;;;;;;;5.65;3.95;;;2.40;99.90;;;;;;5012809;28;20030;-70
2022/05/01 05:21:21;;;;;;;5.43;3.78;;;2.60;99.90;;;;;;4997824;28;20034;-70
2022/05/01 05:23:46;;;;;;;7.88;4.22;;;2.80;99.90;;;;;;4997340;28;20026;-70
2022/05/01 05:26:12;;;;;;;10.23;4.22;;;2.90;99.90;;;;;;4997578;28;20030;-70
2022/05/01 05:28:37;;;;;;;5.78;4.10;;;3.10;99.90;;;;;;4997568;28;20025;-70
2022/05/01 05:31:04;;;;;;;9.65;4.63;;;3.30;99.90;;;;;;4997474;28;20057;-70
2022/05/01 05:33:29;;;;;;;7.28;4.55;;;3.50;99.90;;;;;;4997089;28;20023;-70
2022/05/01 05:35:55;;;;;;;4.93;4.22;;;3.70;99.90;;;;;;4997507;28;20031;-70
2022/05/01 05:38:21;;;;;;;8.82;4.28;;;3.90;99.90;;;;;;5020055;23;20101;-67
2022/05/01 05:40:46;;;;;;;6.75;5.20;;;4.00;99.90;;;;;;4997526;28;20034;-68
2022/05/01 05:43:12;;;;;;;7.78;6.55;;;4.10;99.90;;;;;;4997141;28;20026;-68
2022/05/01 05:45:38;;;;;;;8.65;6.22;;;4.30;99.90;;;;;;4996524;28;20034;-68
2022/05/01 05:48:05;;;;;;;8.07;6.50;;;4.40;99.90;;;;;;4998557;28;20025;-68
2022/05/01 05:50:30;;;;;;;8.40;6.57;;;4.60;99.90;;;;;;5016650;28;20030;-68
2022/05/01 05:52:56;;;;;;;12.50;6.95;;;4.70;99.90;;;;;;5017208;28;20098;-67
2022/05/01 05:55:22;;;;;;;10.30;7.38;;;4.80;99.90;;;;;;5016201;28;20026;-68
2022/05/01 05:57:47;;;;;;;11.80;7.80;;;4.90;99.90;;;;;;5016705;28;20018;-68
2022/05/01 06:00:14;;;;;;;10.60;7.45;;;5.10;99.90;;;;;;5016424;28;20046;-68
2022/05/01 06:02:40;;;;;;;10.43;7.55;;;5.20;99.90;;;;;;5016504;28;20080;-68
2022/05/01 06:05:06;;;;;;;11.80;8.13;;;5.30;99.90;;;;;;5016502;28;20030;-68
2022/05/01 06:07:32;;;;;;;11.55;7.00;;;5.40;99.90;;;;;;5015921;28;20543;-68
2022/05/01 06:09:57;;;;;;;11.98;7.63;;;5.50;99.90;;;;;;5016237;28;20038;-67
2022/05/01 06:12:23;;;;;;;28.15;9.55;;;5.60;99.90;;;;;;5015887;28;20072;-68
2022/05/01 06:14:48;;;;;;;19.50;10.75;;;5.80;99.90;;;;;;5015876;28;20446;-68
2022/05/01 06:17:14;;;;;;;17.75;10.25;;;5.90;99.90;;;;;;5016599;28;20030;-68
2022/05/01 06:19:39;;;;;;;16.92;9.38;;;6.00;99.90;;;;;;5015563;28;20022;-68
2022/05/01 06:22:05;;;;;;;14.85;11.35;;;6.10;99.90;;;;;;5016218;28;20109;-68
2022/05/01 06:24:31;;;;;;;21.15;11.20;;;6.30;99.90;;;;;;5015968;28;20026;-68
2022/05/01 06:26:57;;;;;;;23.00;10.02;;;6.60;99.90;;;;;;5016443;28;20430;-68
2022/05/01 06:29:23;;;;;;;19.25;11.57;;;6.80;99.90;;;;;;5016123;28;20068;-68
2022/05/01 06:31:49;;;;;;;23.25;10.35;;;7.00;99.90;;;;;;5015348;28;20030;-69
2022/05/01 06:34:15;;;;;;;16.38;10.63;;;7.40;99.90;;;;;;5015899;28;20091;-68
2022/05/01 06:36:41;;;;;;;21.25;10.52;;;7.50;99.90;;;;;;5015748;28;20021;-68
2022/05/01 06:39:09;;;;;;;17.70;9.98;;;7.70;99.90;;;;;;5015550;28;20038;-68
2022/05/01 06:41:35;;;;;;;22.48;9.07;;;8.00;99.90;;;;;;5015879;28;20030;-68
2022/05/01 06:44:00;;;;;;;19.25;7.97;;;8.20;99.90;;;;;;5015633;28;20102;-68
2022/05/01 06:46:26;;;;;;;22.05;8.57;;;8.40;99.90;;;;;;5015523;28;20092;-68
2022/05/01 06:48:51;;;;;;;14.55;5.43;;;8.40;99.90;;;;;;5014966;28;20481;-68
2022/05/01 06:51:17;;;;;;;13.18;6.15;;;8.40;99.90;;;;;;5015798;28;20026;-68
2022/05/01 06:53:42;;;;;;;11.98;4.90;;;8.60;99.90;;;;;;5015733;28;20068;-68
2022/05/01 06:56:08;;;;;;;8.70;5.05;;;8.80;99.90;;;;;;5015307;28;20409;-68
2022/05/01 06:58:35;;;;;;;12.02;4.72;;;8.80;99.90;;;;;;5015135;28;20029;-68
2022/05/01 07:01:00;;;;;;;10.55;3.65;;;9.10;99.90;;;;;;5015481;28;20092;-68
2022/05/01 07:03:26;;;;;;;5.63;3.15;;;9.20;99.90;;;;;;5015166;28;20037;-68
2022/05/01 07:05:52;;;;;;;5.80;2.92;;;9.30;99.90;;;;;;5015246;28;20097;-68
2022/05/01 07:08:17;;;;;;;12.70;2.95;;;9.50;99.90;;;;;;5014636;28;20469;-68
2022/05/01 07:10:43;;;;;;;9.48;3.42;;;9.70;99.90;;;;;;5015209;28;20022;-68
2022/05/01 07:13:10;;;;;;;8.60;3.03;;;9.80;99.90;;;;;;5015150;28;20030;-68
2022/05/01 07:15:36;;;;;;;5.22;2.80;;;9.90;99.90;;;;;;5015050;28;20111;-68
2022/05/01 07:18:02;;;;;;;5.65;2.67;;;10.10;99.90;;;;;;5015041;28;20478;-68
2022/05/01 07:20:27;;;;;;;5.55;2.60;;;10.40;99.90;;;;;;5014468;28;20036;-68
2022/05/01 07:22:53;;;;;;;5.88;2.42;;;10.60;99.90;;;;;;5014838;28;20104;-68
2022/05/01 07:25:18;;;;;;;12.20;5.70;;;10.70;99.90;;;;;;5013770;28;20036;-68
2022/05/01 07:27:44;;;;;;;17.33;9.10;;;10.90;99.90;;;;;;5015035;28;20022;-68
2022/05/01 07:30:10;;;;;;;7.25;3.60;;;11.20;99.90;;;;;;5014477;28;20384;-68
2022/05/01 07:32:35;;;;;;;9.25;4.90;;;11.40;99.90;;;;;;5014934;28;20054;-68
2022/05/01 07:35:01;;;;;;;3.47;1.90;;;11.60;99.90;;;;;;5015018;28;20069;-68
2022/05/01 07:37:27;;;;;;;3.90;1.95;;;11.70;99.90;;;;;;5014645;28;20029;-68
2022/05/01 07:39:54;;;;;;;23.17;14.68;;;11.70;99.90;;;;;;5014431;28;20038;-68
2022/05/01 07:42:21;;;;;;;10.23;4.97;;;11.70;99.90;;;;;;5014801;28;20484;-68
2022/05/01 07:44:46;;;;;;;28.38;18.27;;;11.60;99.90;;;;;;5014121;28;20030;-68
2022/05/01 07:47:12;;;;;;;9.50;5.18;;;11.70;99.90;;;;;;5014385;28;20029;-69
2022/05/01 07:49:38;;;;;;;35.95;21.42;;;11.70;99.90;;;;;;5014599;28;20025;-68
2022/05/01 07:52:03;;;;;;;21.55;12.88;;;11.70;99.90;;;;;;5014337;28;20037;-68
2022/05/01 07:54:29;;;;;;;5.15;3.38;;;11.80;99.90;;;;;;5014319;28;20026;-68
2022/05/01 07:56:55;;;;;;;10.50;6.13;;;11.90;99.90;;;;;;5013868;28;20018;-68
2022/05/01 07:59:20;;;;;;;15.82;9.70;;;12.10;99.90;;;;;;5014364;28;20026;-68
2022/05/01 08:01:46;;;;;;;9.93;6.72;;;12.20;99.90;;;;;;5014538;28;20533;-68
2022/05/01 08:04:30;;;;;;;4.05;1.70;;;12.40;99.90;;;;;;5013688;28;20516;-68
2022/05/01 08:07:00;;;;;;;4.70;1.63;;;12.60;99.90;;;;;;5014383;28;20050;-68
2022/05/01 08:09:27;;;;;;;3.72;1.17;;;12.50;99.90;;;;;;5014240;28;20582;-68
2022/05/01 08:11:52;;;;;;;4.40;3.30;;;12.60;99.90;;;;;;5012815;28;20029;-68
2022/05/01 08:14:20;;;;;;;6.05;1.80;;;12.60;99.90;;;;;;5014330;28;20086;-68
2022/05/01 08:16:46;;;;;;;5.72;1.58;;;12.50;99.90;;;;;;5013504;28;20088;-68
2022/05/01 08:21:56;;;;;;;4.63;2.30;;;12.30;99.90;;;;;;5014274;28;20099;-68
2022/05/01 08:24:22;;;;;;;4.65;1.95;;;12.30;99.90;;;;;;5013794;28;20033;-68
2022/05/01 08:26:48;;;;;;;3.05;1.60;;;12.20;99.90;;;;;;5013131;28;20037;-68
2022/05/01 08:29:15;;;;;;;11.00;7.53;;;12.10;99.90;;;;;;5013934;28;20026;-67
2022/05/01 08:31:44;;;;;;;21.80;15.23;;;12.20;99.90;;;;;;5014012;28;20030;-67
2022/05/01 08:34:10;;;;;;;7.65;4.85;;;12.30;99.90;;;;;;5013701;28;20552;-68
2022/05/01 08:36:36;;;;;;;20.08;9.00;;;12.50;99.90;;;;;;5012819;28;20414;-68
2022/05/01 08:39:02;;;;;;;8.45;5.65;;;12.60;99.90;;;;;;5013613;28;20029;-69
2022/05/01 08:41:30;;;;;;;23.77;8.02;;;12.50;99.90;;;;;;5013948;28;20485;-69
2022/05/01 08:44:00;;;;;;;5.65;2.65;;;12.50;99.90;;;;;;5013588;28;20033;-69
2022/05/01 08:46:53;;;;;;;2.55;1.33;;;12.80;99.90;;;;;;5013783;28;20113;-68
2022/05/01 08:49:20;;;;;;;4.97;1.60;;;13.00;99.90;;;;;;5013486;28;20526;-69
2022/05/01 08:51:46;;;;;;;4.82;2.47;;;13.20;99.90;;;;;;5013775;28;20022;-69
2022/05/01 08:54:14;;;;;;;8.98;3.38;;;13.40;99.90;;;;;;5014685;28;20034;-70
2022/05/01 08:56:41;;;;;;;5.40;1.98;;;13.30;99.90;;;;;;5013027;28;20509;-69
2022/05/01 08:59:09;;;;;;;6.40;2.33;;;13.20;99.90;;;;;;5013820;28;20030;-68
2022/05/01 09:01:36;;;;;;;2.80;1.20;;;13.40;99.90;;;;;;5013509;28;20157;-69
2022/05/01 09:04:06;;;;;;;1.60;0.98;;;13.40;99.90;;;;;;5013427;28;20025;-70
2022/05/01 09:06:35;;;;;;;6.75;4.75;;;13.50;99.90;;;;;;5013913;28;20116;-70
2022/05/01 09:09:24;;;;;;;9.60;6.30;;;13.80;99.90;;;;;;5012832;28;20022;-69
2022/05/01 09:14:40;;;;;;;5.55;2.17;;;14.20;99.90;;;;;;5013631;28;20080;-70
2022/05/01 09:17:13;;;;;;;5.22;3.80;;;14.60;99.90;;;;;;5013278;28;20034;-69
2022/05/01 09:19:39;;;;;;;9.25;6.03;;;14.70;99.90;;;;;;5011734;28;20121;-69
2022/05/01 09:22:05;;;;;;;4.13;0.80;;;14.70;99.90;;;;;;5013339;28;20053;-69
2022/05/01 09:24:31;;;;;;;1.63;1.00;;;15.10;99.90;;;;;;5013784;28;20058;-70
2022/05/01 09:26:58;;;;;;;1.13;0.70;;;15.70;99.90;;;;;;5013184;28;20030;-69
2022/05/01 09:29:30;;;;;;;4.80;1.38;;;15.90;99.90;;;;;;5013108;28;20026;-69
2022/05/01 09:31:57;;;;;;;4.00;2.90;;;16.10;99.90;;;;;;5013540;28;20109;-69
2022/05/01 09:34:25;;;;;;;0.85;0.70;;;16.10;99.90;;;;;;5012732;28;20109;-69
2022/05/01 09:36:51;;;;;;;0.63;0.63;;;16.10;95.60;;;;;;5013171;28;20026;-69
2022/05/01 09:39:22;;;;;;;1.35;0.60;;;16.10;96.50;;;;;;5012897;28;20033;-69
2022/05/01 09:41:49;;;;;;;1.67;0.50;;;16.10;93.70;;;;;;5013344;28;20058;-69
2022/05/01 09:44:17;;;;;;;1.27;0.70;;;16.00;92.60;;;;;;5012902;28;20041;-68
2022/05/01 09:46:44;;;;;;;2.67;0.75;;;16.40;98.30;;;;;;5013287;28;20050;-68
2022/05/01 09:49:15;;;;;;;5.20;0.90;;;16.80;96.80;;;;;;5015489;28;20403;-68
2022/05/01 09:51:46;;;;;;;0.80;0.75;;;17.20;98.60;;;;;;5016889;28;20026;-68
2022/05/01 09:54:22;;;;;;;1.20;0.98;;;17.40;96.40;;;;;;5016050;28;20050;-68
2022/05/01 09:56:52;;;;;;;0.90;0.70;;;17.00;96.20;;;;;;5016437;28;20017;-68
2022/05/01 09:59:19;;;;;;;2.88;1.60;;;16.60;96.10;;;;;;5015400;28;20091;-68
2022/05/01 10:02:05;;;;;;;1.45;0.80;;;16.40;94.40;;;;;;5015444;28;20552;-67
2022/05/01 10:04:36;;;;;;;6.95;2.72;;;16.10;95.00;;;;;;5016542;28;20030;-69
2022/05/01 10:07:03;;;;;;;2.72;1.48;;;15.70;96.70;;;;;;5015953;28;20425;-70
2022/05/01 10:09:30;;;;;;;2.42;1.10;;;15.50;98.80;;;;;;5016188;28;20026;-69
2022/05/01 10:11:58;;;;;;;6.03;3.55;;;15.10;97.70;;;;;;5016176;28;20022;-69
2022/05/01 10:14:24;;;;;;;4.05;1.15;;;14.80;99.90;;;;;;5016122;28;20025;-69
2022/05/01 10:16:53;;;;;;;1.40;0.90;;;14.70;99.90;;;;;;5016098;28;20057;-68
2022/05/01 10:19:18;;;;;;;2.30;1.00;;;14.90;99.90;;;;;;5016142;28;20032;-71
2022/05/01 10:21:49;;;;;;;2.45;1.10;;;15.20;99.10;;;;;;5015509;28;20030;-70
2022/05/01 10:24:15;;;;;;;3.65;1.00;;;15.10;99.40;;;;;;5015949;28;20124;-71
2022/05/01 10:27:26;;;;;;;3.42;1.00;;;15.10;97.90;;;;;;5016085;28;20053;-70
2022/05/01 10:33:15;;;;;;;1.23;0.70;;;15.00;97.10;;;;;;5015846;28;20088;-69
2022/05/01 10:36:20;;;;;;;1.35;1.00;;;15.40;96.30;;;;;;5015221;28;20025;-70
2022/05/01 10:39:13;;;;;;;3.35;1.10;;;15.30;96.00;;;;;;5015215;28;20041;-69
2022/05/01 10:41:48;;;;;;;2.08;0.70;;;15.50;96.80;;;;;;5015807;28;20029;-70
2022/05/01 10:44:36;;;;;;;3.58;1.40;;;15.30;95.00;;;;;;5015666;28;20029;-70
2022/05/01 10:47:16;;;;;;;2.63;1.00;;;15.50;96.60;;;;;;5015082;28;20034;-68
2022/05/01 10:49:44;;;;;;;1.65;0.90;;;15.50;99.40;;;;;;5015436;28;20018;-69
2022/05/01 10:52:23;;;;;;;1.17;0.80;;;15.60;97.20;;;;;;5015351;28;20441;-70
2022/05/01 10:55:00;;;;;;;2.72;1.23;;;15.70;95.60;;;;;;5015913;28;20026;-70
2022/05/01 10:57:26;;;;;;;16.20;0.90;;;15.50;95.80;;;;;;5015054;28;20112;-69
2022/05/01 11:00:05;;;;;;;2.05;0.73;;;15.40;98.30;;;;;;5014997;28;20447;-68
2022/05/01 11:02:46;;;;;;;1.15;0.82;;;15.30;95.50;;;;;;5015555;28;20471;-69
2022/05/01 11:05:42;;;;;;;1.30;1.00;;;15.10;97.60;;;;;;5015785;28;20029;-69
2022/05/01 11:08:36;;;;;;;4.38;2.70;;;15.00;96.70;;;;;;5028655;28;20473;-68
2022/05/01 11:11:05;;;;;;;4.60;1.58;;;14.90;98.40;;;;;;5013692;28;20125;-68
2022/05/01 11:13:32;;;;;;;3.58;2.13;;;14.80;98.80;;;;;;5014935;28;20028;-69
2022/05/01 11:15:59;;;;;;;2.00;1.00;;;14.70;99.20;;;;;;5014963;28;20033;-69
2022/05/01 11:18:28;;;;;;;2.70;0.90;;;14.50;98.10;;;;;;5015071;28;20418;-68
2022/05/01 11:20:54;;;;;;;2.50;1.67;;;14.30;99.90;;;;;;5014892;28;20026;-69
2022/05/01 11:23:33;;;;;;;3.00;1.55;;;14.60;99.90;;;;;;5014423;28;20463;-69
2022/05/01 11:26:07;;;;;;;1.55;1.05;;;15.40;99.90;;;;;;5014534;28;20041;-68
2022/05/01 11:28:47;;;;;;;2.75;1.00;;;15.90;99.40;;;;;;5014932;28;20072;-69
2022/05/01 11:31:37;;;;;;;1.70;1.00;;;16.30;95.60;;;;;;5014740;28;20021;-69
2022/05/01 11:34:22;;;;;;;1.85;0.93;;;16.90;97.00;;;;;;5014620;28;20029;-70
2022/05/01 11:37:08;;;;;;;2.72;0.80;;;17.20;96.00;;;;;;5015121;28;20030;-69
2022/05/01 11:39:45;;;;;;;3.03;0.75;;;17.20;98.50;;;;;;5049729;23;20049;-67
2022/05/01 11:42:26;;;;;;;3.97;0.98;;;17.70;96.00;;;;;;5014424;28;20022;-69
2022/05/01 11:44:54;;;;;;;1.60;0.85;;;18.00;92.70;;;;;;5029910;28;20045;-68
2022/05/01 11:47:21;;;;;;;1.60;0.60;;;18.00;92.30;;;;;;5014563;28;20473;-67
2022/05/01 11:49:47;;;;;;;1.08;0.70;;;18.20;91.60;;;;;;5014520;28;20045;-67
2022/05/01 11:52:13;;;;;;;5.90;1.00;;;18.30;94.30;;;;;;5014601;28;20393;-67
2022/05/01 11:54:49;;;;;;;1.33;0.70;;;18.00;91.80;;;;;;5014609;28;20022;-67
2022/05/01 12:02:55;;;;;;;1.90;1.00;;;16.40;94.10;;;;;;5017539;28;20125;-67
2022/05/01 12:05:20;;;;;;;;;;;16.10;93.90;;;;;;5015002;28;20036;-67
2022/05/01 12:07:56;;;;;;;2.72;0.80;;;15.60;93.50;;;;;;5014430;28;19981;-67
2022/05/01 12:10:22;;;;;;;2.75;1.10;;;15.50;94.30;;;;;;5013503;28;20045;-70
2022/05/01 12:12:48;;;;;;;3.10;1.10;;;15.30;95.70;;;;;;5013966;28;20355;-69
2022/05/01 12:15:13;;;;;;;1.80;0.90;;;15.30;96.10;;;;;;5014531;28;20100;-69
2022/05/01 12:17:40;;;;;;;2.22;0.85;;;15.40;96.50;;;;;;5014236;28;20113;-69
2022/05/01 12:20:07;;;;;;;5.22;1.05;;;15.50;97.70;;;;;;5014012;28;20083;-69
2022/05/01 12:22:37;;;;;;;2.83;0.90;;;15.10;98.10;;;;;;5013795;28;20112;-69
2022/05/01 12:25:07;;;;;;;3.58;1.00;;;15.20;98.90;;;;;;5014429;28;20508;-69
2022/05/01 12:27:33;;;;;;;3.05;0.80;;;15.10;99.60;;;;;;5014350;28;20037;-69
2022/05/01 12:30:04;;;;;;;3.05;0.80;;;14.70;99.90;;;;;;5013958;28;20018;-70
2022/05/01 12:32:31;;;;;;;4.85;1.50;;;14.60;99.90;;;;;;5013822;28;20049;-70
2022/05/01 12:35:00;;;;;;;1.60;0.88;;;14.60;99.90;;;;;;5013988;28;20022;-70
2022/05/01 12:37:37;;;;;;;2.13;0.70;;;14.70;99.90;;;;;;5013884;28;20101;-70
2022/05/01 12:40:09;;;;;;;2.20;0.82;;;14.40;99.90;;;;;;5013866;28;20041;-70
2022/05/01 12:45:39;;;;;;;2.63;0.88;;;14.50;99.90;;;;;;5014037;28;20121;-70
2022/05/01 12:48:07;;;;;;;3.88;0.85;;;14.20;99.90;;;;;;5013870;28;20033;-70
2022/05/01 12:50:35;;;;;;;2.20;0.90;;;14.10;99.90;;;;;;5013665;28;20038;-70
2022/05/01 12:53:19;;;;;;;9.85;1.90;;;14.00;99.90;;;;;;5013774;28;20382;-68
2022/05/01 12:55:45;;;;;;;4.10;0.90;;;14.00;99.90;;;;;;5013331;28;20409;-68
2022/05/01 12:58:11;;;;;;;1.50;0.77;;;13.80;99.90;;;;;;5013609;28;20025;-68
2022/05/01 13:00:47;;;;;;;1.83;0.80;;;13.60;99.90;;;;;;5013800;28;20367;-68
2022/05/01 13:03:15;;;;;;;3.92;0.85;;;13.50;99.90;;;;;;5013632;28;20029;-68
2022/05/01 13:05:43;;;;;;;2.42;1.33;;;13.50;99.90;;;;;;5012918;28;20025;-68
2022/05/01 13:08:19;;;;;;;5.13;1.20;;;13.30;99.90;;;;;;5013861;28;20105;-68
2022/05/01 13:11:13;;;;;;;4.28;1.20;;;13.20;99.90;;;;;;5013652;28;20378;-68
2022/05/01 13:13:49;;;;;;;2.38;1.27;;;13.20;99.90;;;;;;5013519;28;20025;-68
2022/05/01 13:16:16;;;;;;;1.10;0.60;;;13.20;99.90;;;;;;5013574;28;20032;-68
2022/05/01 13:18:43;;;;;;;2.78;1.02;;;13.20;99.90;;;;;;5013434;28;20494;-70
2022/05/01 13:21:08;;;;;;;3.83;0.70;;;13.30;99.90;;;;;;5013142;28;20053;-68
2022/05/01 13:23:34;;;;;;;12.82;1.17;;;13.30;99.90;;;;;;5016390;28;20105;-68
2022/05/01 13:26:01;;;;;;;1.70;0.80;;;13.30;99.90;;;;;;5017137;28;20466;-69
2022/05/01 13:28:28;;;;;;;5.88;2.42;;;13.40;99.90;;;;;;5016777;28;20036;-69
2022/05/01 13:30:53;;;;;;;5.25;2.03;;;13.40;99.90;;;;;;5017124;28;20509;-69
2022/05/01 13:33:19;;;;;;;3.85;0.77;;;13.50;99.90;;;;;;5017147;28;20030;-69
2022/05/01 13:35:45;;;;;;;1.48;0.80;;;13.60;99.90;;;;;;5016897;28;20424;-69